createdAt,value
2018-05-06T00:03:12.167Z,1025.6
2018-05-06T00:08:12.261Z,1025.6
2018-05-06T00:13:12.652Z,1025.5
2018-05-06T00:18:12.099Z,1025.5
2018-05-06T00:23:12.399Z,1025.5
2018-05-06T00:28:12.733Z,1025.5
2018-05-06T00:33:12.073Z,1025.5
2018-05-06T00:38:12.447Z,1025.5
2018-05-06T00:43:11.765Z,1025.5
2018-05-06T00:48:12.142Z,1025.5
2018-05-06T00:53:12.599Z,1025.5
2018-05-06T00:58:11.890Z,1025.5
2018-05-06T01:03:12.298Z,1025.5
2018-05-06T01:08:12.422Z,1025.5
2018-05-06T01:13:12.610Z,1025.5
2018-05-06T01:18:12.048Z,1025.5
2018-05-06T01:23:12.417Z,1025.5
2018-05-06T01:28:12.453Z,1025.5
2018-05-06T01:33:11.959Z,1025.5
2018-05-06T01:38:12.367Z,1025.5
2018-05-06T01:43:11.867Z,1025.5
2018-05-06T01:48:12.317Z,1025.5
2018-05-06T01:53:12.659Z,1025.4
2018-05-06T01:58:11.978Z,1025.4
2018-05-06T02:03:12.395Z,1025.4
2018-05-06T02:08:11.855Z,1025.4
2018-05-06T02:13:12.225Z,1025.4
2018-05-06T02:18:12.677Z,1025.4
2018-05-06T02:23:11.900Z,1025.4
2018-05-06T02:28:12.347Z,1025.4
2018-05-06T02:33:12.811Z,1025.4
2018-05-06T02:38:12.221Z,1025.4
2018-05-06T02:43:12.578Z,1025.4
2018-05-06T02:48:12.045Z,1025.4
2018-05-06T02:53:12.469Z,1025.5
2018-05-06T02:58:12.779Z,1025.5
2018-05-06T03:03:12.415Z,1025.5
2018-05-06T03:08:12.769Z,1025.5
2018-05-06T03:13:12.112Z,1025.4
2018-05-06T03:18:12.449Z,1025.4
2018-05-06T03:23:12.796Z,1025.4
2018-05-06T03:28:12.234Z,1025.4
2018-05-06T03:33:12.724Z,1025.4
2018-05-06T03:38:12.115Z,1025.4
2018-05-06T03:43:12.513Z,1025.4
2018-05-06T03:48:11.977Z,1025.4
2018-05-06T03:53:12.384Z,1025.5
2018-05-06T03:58:12.808Z,1025.5
2018-05-06T04:03:12.322Z,1025.5
2018-05-06T04:08:12.316Z,1025.5
2018-05-06T04:13:12.835Z,1025.5
2018-05-06T04:18:12.374Z,1025.5
2018-05-06T04:23:12.762Z,1025.5
2018-05-06T04:28:12.163Z,1025.5
2018-05-06T04:33:12.723Z,1025.5
2018-05-06T04:38:12.286Z,1025.5
2018-05-06T04:43:12.807Z,1025.7
2018-05-06T04:48:12.253Z,1025.7
2018-05-06T04:53:12.130Z,1025.8
2018-05-06T04:58:12.511Z,1025.8
2018-05-06T05:03:13.037Z,1025.8
2018-05-06T05:08:12.433Z,1025.8
2018-05-06T05:13:12.834Z,1025.9
2018-05-06T05:18:12.200Z,1025.9
2018-05-06T05:23:12.477Z,1025.7
2018-05-06T05:28:12.865Z,1025.7
2018-05-06T05:33:12.233Z,1025.6
2018-05-06T05:38:12.527Z,1025.6
2018-05-06T05:43:12.746Z,1025.8
2018-05-06T05:48:12.037Z,1025.8
2018-05-06T05:53:12.275Z,1025.9
2018-05-06T05:58:12.485Z,1025.9
2018-05-06T06:03:12.192Z,1025.9
2018-05-06T06:08:12.886Z,1025.9
2018-05-06T06:13:12.095Z,1026
2018-05-06T06:18:13.110Z,1026
2018-05-06T06:23:12.394Z,1026
2018-05-06T06:28:12.709Z,1026
2018-05-06T06:33:12.954Z,1025.9
2018-05-06T06:38:12.287Z,1025.9
2018-05-06T06:43:12.578Z,1026.2
2018-05-06T06:48:12.954Z,1026.2
2018-05-06T06:53:12.316Z,1026.2
2018-05-06T06:58:12.480Z,1026.2
2018-05-06T07:03:12.958Z,1026.2
2018-05-06T07:08:12.307Z,1026.2
2018-05-06T07:13:12.668Z,1026.1
2018-05-06T07:18:12.887Z,1026.1
2018-05-06T07:23:12.395Z,1026
2018-05-06T07:28:12.756Z,1026
2018-05-06T07:33:13.281Z,1026
2018-05-06T07:38:12.533Z,1026
2018-05-06T07:43:12.870Z,1025.9
2018-05-06T07:48:13.103Z,1025.9
2018-05-06T07:53:12.373Z,1025.9
2018-05-06T07:58:12.691Z,1025.9
2018-05-06T08:03:13.059Z,1025.8
2018-05-06T08:08:12.313Z,1025.8
2018-05-06T08:13:12.628Z,1025.8
2018-05-06T08:18:12.844Z,1025.8
2018-05-06T08:23:13.170Z,1025.9
2018-05-06T08:28:12.403Z,1025.9
2018-05-06T08:33:12.761Z,1025.9
2018-05-06T08:38:13.025Z,1025.9
2018-05-06T08:43:12.244Z,1025.8
2018-05-06T08:48:12.549Z,1025.8
2018-05-06T08:53:12.880Z,1025.8
2018-05-06T08:58:13.167Z,1025.8
2018-05-06T09:03:12.606Z,1025.8
2018-05-06T09:08:12.620Z,1025.8
2018-05-06T09:13:13.000Z,1025.8
2018-05-06T09:18:13.248Z,1025.8
2018-05-06T09:23:12.509Z,1025.8
2018-05-06T09:28:12.844Z,1025.8
2018-05-06T09:33:13.205Z,1025.8
2018-05-06T09:38:12.555Z,1025.8
2018-05-06T09:43:12.805Z,1025.5
2018-05-06T09:48:13.149Z,1025.5
2018-05-06T09:53:12.359Z,1025.4
2018-05-06T09:58:12.579Z,1025.4
2018-05-06T10:03:12.893Z,1025.4
2018-05-06T10:08:12.789Z,1025.4
2018-05-06T10:13:13.095Z,1025.4
2018-05-06T10:18:12.537Z,1025.4
2018-05-06T10:23:12.765Z,1025.3
2018-05-06T10:28:13.091Z,1025.3
2018-05-06T10:33:12.499Z,1025.3
2018-05-06T10:38:12.794Z,1025.3
2018-05-06T10:43:13.046Z,1025.2
2018-05-06T10:48:13.457Z,1025.2
2018-05-06T10:53:12.689Z,1025.2
2018-05-06T10:58:12.973Z,1025.2
2018-05-06T11:03:13.533Z,1025.2
2018-05-06T11:08:12.783Z,1025.2
2018-05-06T11:13:13.077Z,1025.2
2018-05-06T11:18:13.396Z,1025.2
2018-05-06T11:23:12.689Z,1025.1
2018-05-06T11:28:12.898Z,1025.1
2018-05-06T11:33:13.337Z,1025
2018-05-06T11:38:12.627Z,1025
2018-05-06T11:43:12.879Z,1024.8
2018-05-06T11:48:13.277Z,1024.8
2018-05-06T11:53:12.568Z,1024.7
2018-05-06T11:58:12.833Z,1024.7
2018-05-06T12:03:13.204Z,1024.6
2018-05-06T12:08:12.524Z,1024.6
2018-05-06T12:13:12.715Z,1024.6
2018-05-06T12:18:13.037Z,1024.6
2018-05-06T12:23:13.303Z,1024.5
2018-05-06T12:28:12.549Z,1024.5
2018-05-06T12:33:12.953Z,1024.5
2018-05-06T12:38:13.346Z,1024.5
2018-05-06T12:43:12.914Z,1024.1
2018-05-06T12:48:13.232Z,1024.1
2018-05-06T12:53:13.480Z,1024
2018-05-06T12:58:12.732Z,1024
2018-05-06T13:03:13.214Z,1024
2018-05-06T13:08:12.643Z,1024
2018-05-06T13:13:12.661Z,1024
2018-05-06T13:18:12.992Z,1024
2018-05-06T13:23:13.279Z,1023.8
2018-05-06T13:28:12.598Z,1023.8
2018-05-06T13:33:12.898Z,1023.7
2018-05-06T13:38:13.294Z,1023.7
2018-05-06T13:43:12.651Z,1023.6
2018-05-06T13:48:12.845Z,1023.6
2018-05-06T13:53:13.175Z,1023.5
2018-05-06T13:58:12.740Z,1023.5
2018-05-06T14:03:13.096Z,1023.5
2018-05-06T14:08:13.443Z,1023.5
2018-05-06T14:13:12.888Z,1023.5
2018-05-06T14:18:13.176Z,1023.5
2018-05-06T14:23:13.476Z,1023.3
2018-05-06T14:28:12.696Z,1023.3
2018-05-06T14:33:13.024Z,1023.2
2018-05-06T14:38:13.327Z,1023.2
2018-05-06T14:43:12.621Z,1023.1
2018-05-06T14:48:12.937Z,1023.1
2018-05-06T14:53:13.269Z,1023.1
2018-05-06T14:58:13.507Z,1023.1
2018-05-06T15:03:12.930Z,1023.1
2018-05-06T15:08:13.251Z,1023.1
2018-05-06T15:13:12.876Z,1023.1
2018-05-06T15:18:13.349Z,1023.1
2018-05-06T15:23:13.661Z,1023
2018-05-06T15:28:12.901Z,1023
2018-05-06T15:33:13.210Z,1022.9
2018-05-06T15:38:13.556Z,1022.9
2018-05-06T15:43:13.170Z,1022.8
2018-05-06T15:48:13.361Z,1022.8
2018-05-06T15:53:13.605Z,1022.7
2018-05-06T15:58:12.794Z,1022.7
2018-05-06T16:03:13.211Z,1022.7
2018-05-06T16:08:13.644Z,1022.7
2018-05-06T16:13:13.300Z,1022.5
2018-05-06T16:18:13.612Z,1022.5
2018-05-06T16:23:12.938Z,1022.5
2018-05-06T16:28:13.296Z,1022.5
2018-05-06T16:33:13.623Z,1022.5
2018-05-06T16:38:12.838Z,1022.5
2018-05-06T16:43:13.176Z,1022.4
2018-05-06T16:48:13.564Z,1022.4
2018-05-06T16:53:12.751Z,1022.2
2018-05-06T16:58:13.043Z,1022.2
2018-05-06T17:03:13.379Z,1022.2
2018-05-06T17:08:13.690Z,1022.2
2018-05-06T17:13:13.755Z,1022.2
2018-05-06T17:18:13.107Z,1022.2
2018-05-06T17:23:13.426Z,1022.2
2018-05-06T17:28:13.765Z,1022.2
2018-05-06T17:33:13.218Z,1022.2
2018-05-06T17:38:13.489Z,1022.2
2018-05-06T17:43:13.888Z,1022.2
2018-05-06T17:48:13.267Z,1022.2
2018-05-06T17:53:13.577Z,1022.3
2018-05-06T17:58:12.819Z,1022.3
2018-05-06T18:03:13.192Z,1022.3
2018-05-06T18:08:13.506Z,1022.3
2018-05-06T18:13:12.942Z,1022.2
2018-05-06T18:18:13.277Z,1022.2
2018-05-06T18:23:13.716Z,1022.3
2018-05-06T18:28:13.102Z,1022.3
2018-05-06T18:33:13.552Z,1022.3
2018-05-06T18:38:13.866Z,1022.3
2018-05-06T18:43:13.144Z,1022.3
2018-05-06T18:48:13.412Z,1022.3
2018-05-06T18:53:13.744Z,1022.3
2018-05-06T18:58:13.158Z,1022.3
2018-05-06T19:03:13.570Z,1022.3
2018-05-06T19:08:12.919Z,1022.3
2018-05-06T19:13:13.808Z,1022.4
2018-05-06T19:18:13.141Z,1022.4
2018-05-06T19:23:13.388Z,1022.4
2018-05-06T19:28:13.762Z,1022.4
2018-05-06T19:33:13.084Z,1022.4
2018-05-06T19:38:13.359Z,1022.4
2018-05-06T19:43:13.687Z,1022.5
2018-05-06T19:48:13.061Z,1022.5
2018-05-06T19:53:13.389Z,1022.6
2018-05-06T19:58:13.657Z,1022.6
2018-05-06T20:03:13.123Z,1022.6
2018-05-06T20:08:13.361Z,1022.6
2018-05-06T20:13:13.578Z,1022.5
2018-05-06T20:18:13.896Z,1022.5
2018-05-06T20:23:13.242Z,1022.6
2018-05-06T20:28:13.475Z,1022.6
2018-05-06T20:33:13.927Z,1022.6
2018-05-06T20:38:13.382Z,1022.6
2018-05-06T20:43:13.619Z,1022.5
2018-05-06T20:48:14.013Z,1022.5
2018-05-06T20:53:13.475Z,1022.6
2018-05-06T20:58:13.803Z,1022.6
2018-05-06T21:03:13.217Z,1022.6
2018-05-06T21:08:13.542Z,1022.6
2018-05-06T21:13:13.817Z,1022.4
2018-05-06T21:18:13.183Z,1022.4
2018-05-06T21:23:13.543Z,1022.3
2018-05-06T21:28:13.826Z,1022.3
2018-05-06T21:33:13.305Z,1022.3
2018-05-06T21:38:13.701Z,1022.3
2018-05-06T21:43:14.098Z,1022.3
2018-05-06T21:48:13.393Z,1022.3
2018-05-06T21:53:13.627Z,1022.5
2018-05-06T21:58:13.965Z,1022.5
2018-05-06T22:03:13.284Z,1022.5
2018-05-06T22:08:13.609Z,1022.5
2018-05-06T22:13:14.023Z,1022.6
2018-05-06T22:18:13.375Z,1022.6
2018-05-06T22:23:13.533Z,1022.5
2018-05-06T22:28:13.849Z,1022.5
2018-05-06T22:33:14.267Z,1022.5
2018-05-06T22:38:13.613Z,1022.5
2018-05-06T22:43:13.855Z,1022.3
2018-05-06T22:48:14.136Z,1022.3
2018-05-06T22:53:13.396Z,1022.2
2018-05-06T22:58:13.610Z,1022.2
2018-05-06T23:03:13.490Z,1022.2
2018-05-06T23:08:13.804Z,1022.2
2018-05-06T23:13:14.460Z,1022.2
2018-05-06T23:18:13.765Z,1022.2
2018-05-06T23:23:13.893Z,1022.2
2018-05-06T23:28:14.269Z,1022.2
2018-05-06T23:33:13.702Z,1022.2
2018-05-06T23:38:14.126Z,1022.2
2018-05-06T23:43:13.339Z,1022.2
2018-05-06T23:48:13.730Z,1022.2
2018-05-06T23:53:13.997Z,1022.2
2018-05-06T23:58:14.341Z,1022.2
